Time;durP1;ratioP1;P1;durP2;ratioP2;P2;SDS_P1;SDS_P2;PMS_P1;PMS_P2;Temp;Humidity;BMP_temperature;BMP_pressure;BME280_temperature;BME280_humidity;BME280_pressure;Samples;Min_cycle;Max_cycle;Signal;HPM_P1;HPM_P2
2022/04/27 00:00:21;;;;;;;;;6.00;6.00;;;;;9.64;53.97;101342.88;5055969;28;45501;-77
2022/04/27 00:02:47;;;;;;;;;12.00;6.00;;;;;9.63;53.92;101351.69;5056604;28;45420;-76
2022/04/27 00:05:14;;;;;;;;;7.75;7.75;;;;;9.59;53.88;101349.91;5056142;28;45497;-76
2022/04/27 00:07:39;;;;;;;;;6.75;6.75;;;;;9.58;54.46;101348.16;5055564;28;45331;-77
2022/04/27 00:10:06;;;;;;;;;7.00;7.00;;;;;9.56;54.57;101349.94;5055525;28;45571;-77
2022/04/27 00:12:33;;;;;;;;;5.25;5.25;;;;;9.52;54.00;101354.34;5058094;28;45399;-76
2022/04/27 00:14:59;;;;;;;;;7.25;7.25;;;;;9.46;54.35;101348.19;5057612;28;45776;-75
2022/04/27 00:17:24;;;;;;;;;10.50;6.25;;;;;9.42;54.52;101345.56;5056056;28;45466;-77
2022/04/27 00:19:50;;;;;;;;;9.00;7.00;;;;;9.40;54.90;101360.53;5056136;28;45373;-77
2022/04/27 00:22:15;;;;;;;;;5.75;5.75;;;;;9.38;54.77;101350.88;5055319;28;45436;-76
2022/04/27 00:24:40;;;;;;;;;6.75;6.75;;;;;9.35;54.88;101346.50;5055539;28;45605;-78
2022/04/27 00:27:06;;;;;;;;;9.50;7.50;;;;;9.34;55.02;101354.41;5056098;28;46053;-77
2022/04/27 00:29:32;;;;;;;;;6.00;5.50;;;;;9.34;54.68;101364.97;5056831;28;45506;-77
2022/04/27 00:31:58;;;;;;;;;7.00;7.00;;;;;9.28;54.48;101355.31;5055895;28;45381;-77
2022/04/27 00:34:23;;;;;;;;;6.75;6.00;;;;;9.22;55.13;101347.41;5056014;28;45594;-76
2022/04/27 00:36:49;;;;;;;;;10.00;5.00;;;;;9.23;54.57;101352.66;5057086;28;45544;-80
2022/04/27 00:39:14;;;;;;;;;6.25;6.25;;;;;9.15;55.35;101349.16;5055787;28;45324;-79
2022/04/27 00:41:58;;;;;;;;;10.75;7.00;;;;;9.12;55.11;101354.44;5056848;28;45446;-78
2022/04/27 00:44:31;;;;;;;;;8.00;6.00;;;;;9.11;55.79;101357.06;5061125;28;45362;-78
2022/04/27 00:46:57;;;;;;;;;5.75;3.50;;;;;9.10;55.39;101353.56;5038935;28;47821;-78
2022/04/27 00:49:23;;;;;;;;;9.00;9.00;;;;;9.06;55.39;101347.44;5056593;28;45461;-79
2022/04/27 00:51:49;;;;;;;;;9.50;7.75;;;;;8.99;55.42;101345.69;5056502;28;45446;-79
2022/04/27 00:54:16;;;;;;;;;11.00;5.50;;;;;9.03;55.49;101344.81;5056186;28;45431;-79
2022/04/27 00:56:42;;;;;;;;;14.25;9.75;;;;;8.94;55.82;101344.78;5057124;28;45618;-79
2022/04/27 00:59:08;;;;;;;;;0.00;0.00;;;;;8.95;56.11;101336.00;5055986;28;45344;-79
2022/04/27 01:01:34;;;;;;;;;13.50;7.00;;;;;8.95;56.27;101337.78;5055194;28;45378;-76
2022/04/27 01:03:59;;;;;;;;;6.75;6.75;;;;;8.96;55.92;101343.03;5055316;28;45426;-77
2022/04/27 01:06:25;;;;;;;;;10.75;6.00;;;;;8.95;55.76;101341.28;5054857;28;46008;-76
2022/04/27 01:08:51;;;;;;;;;4.00;4.00;;;;;8.88;56.05;101340.41;5037363;28;45446;-76
2022/04/27 01:11:16;;;;;;;;;12.75;9.75;;;;;8.87;55.92;101335.16;5054784;28;45538;-76
2022/04/27 01:13:42;;;;;;;;;12.00;6.50;;;;;8.87;56.31;101345.69;5054983;28;45340;-77
2022/04/27 01:16:08;;;;;;;;;9.50;6.25;;;;;8.84;56.16;101337.78;5058350;28;45359;-78
2022/04/27 01:18:34;;;;;;;;;7.50;6.25;;;;;8.84;56.08;101341.28;5056020;28;45343;-77
2022/04/27 01:21:03;;;;;;;;;9.25;6.00;;;;;8.78;56.37;101337.78;5037441;28;45419;-78
2022/04/27 01:23:28;;;;;;;;;9.50;5.50;;;;;8.75;56.89;101343.06;5056719;28;45485;-78
2022/04/27 01:26:05;;;;;;;;;9.00;9.00;;;;;8.74;56.00;101336.03;5055575;28;45683;-78
2022/04/27 01:28:30;;;;;;;;;7.00;7.00;;;;;8.75;56.65;101343.06;5055340;28;45449;-78
2022/04/27 01:30:58;;;;;;;;;7.50;4.50;;;;;8.68;56.50;101335.16;5054630;28;45382;-76
2022/04/27 01:33:25;;;;;;;;;12.25;7.50;;;;;8.65;56.73;101329.84;5054995;28;45443;-77
2022/04/27 01:35:51;;;;;;;;;6.75;6.50;;;;;8.63;56.73;101326.34;5054540;28;46146;-78
2022/04/27 01:38:17;;;;;;;;;9.75;9.00;;;;;8.49;57.46;101320.22;5055168;28;45478;-80
2022/04/27 01:40:44;;;;;;;;;9.50;8.00;;;;;8.59;57.40;101336.91;5054940;28;45500;-79
2022/04/27 01:43:09;;;;;;;;;6.25;6.25;;;;;8.53;57.11;101330.75;5058951;28;45509;-78
2022/04/27 01:45:35;;;;;;;;;3.25;3.25;;;;;8.58;57.55;101336.03;5060151;28;45494;-79
2022/04/27 01:48:00;;;;;;;;;8.25;6.25;;;;;8.52;57.54;101333.41;5055532;28;45390;-79
2022/04/27 01:50:25;;;;;;;;;10.00;7.00;;;;;8.54;57.31;101329.88;5055537;28;45522;-79
2022/04/27 01:55:35;;;;;;;;;1.00;1.00;;;;;8.51;57.79;101323.72;5054663;28;45814;-79
2022/04/27 01:58:01;;;;;;;;;9.75;9.75;;;;;8.45;57.75;101329.00;5054872;28;45438;-77
2022/04/27 02:00:27;;;;;;;;;9.75;7.50;;;;;8.44;57.54;101336.03;5055561;28;45457;-79
2022/04/27 02:02:52;;;;;;;;;7.00;7.00;;;;;8.40;57.96;101343.91;5054812;28;45486;-78
2022/04/27 02:05:17;;;;;;;;;11.50;7.00;;;;;8.40;57.88;101347.41;5055325;28;45511;-79
2022/04/27 02:07:45;;;;;;;;;11.00;10.00;;;;;8.38;58.13;101343.91;5055043;28;45421;-78
2022/04/27 02:10:11;;;;;;;;;7.25;6.25;;;;;8.36;57.59;101349.13;5054139;28;45502;-79
2022/04/27 02:12:36;;;;;;;;;3.50;3.00;;;;;8.33;57.89;101341.22;5038127;28;45413;-80
2022/04/27 02:15:02;;;;;;;;;11.75;10.00;;;;;8.30;58.33;101338.59;5057801;28;45354;-78
2022/04/27 02:17:27;;;;;;;;;12.00;12.00;;;;;8.31;58.55;101345.63;5058293;28;45436;-78
2022/04/27 02:19:53;;;;;;;;;9.00;8.50;;;;;8.25;58.50;101342.97;5056827;28;45382;-79
2022/04/27 02:22:18;;;;;;;;;9.00;6.75;;;;;8.23;58.33;101341.22;5054356;28;45443;-79
2022/04/27 02:24:44;;;;;;;;;8.75;4.00;;;;;8.27;58.66;101351.75;5056574;28;45999;-78
2022/04/27 02:27:09;;;;;;;;;6.50;5.75;;;;;8.25;58.47;101345.63;5058264;28;45661;-78
2022/04/27 02:29:34;;;;;;;;;12.00;9.50;;;;;8.20;59.30;101347.38;5061134;28;45516;-79
2022/04/27 02:32:00;;;;;;;;;11.00;6.75;;;;;8.15;59.54;101343.81;5041271;28;45400;-79
2022/04/27 02:34:25;;;;;;;;;6.00;6.00;;;;;8.14;59.72;101340.34;5058630;28;46363;-78
2022/04/27 02:36:50;;;;;;;;;7.00;4.50;;;;;8.16;59.52;101348.22;5059047;28;45437;-78
2022/04/27 02:39:16;;;;;;;;;7.75;7.00;;;;;8.11;59.43;101350.84;5058018;28;45450;-79
2022/04/27 02:41:41;;;;;;;;;10.00;9.00;;;;;8.05;59.73;101340.31;5057926;28;45379;-78
2022/04/27 02:44:07;;;;;;;;;18.00;9.75;;;;;8.08;59.26;101342.09;5059579;28;46362;-79
2022/04/27 02:46:32;;;;;;;;;4.50;1.00;;;;;7.99;59.78;101341.16;5061749;28;45428;-78
2022/04/27 02:51:53;;;;;;;;;6.50;6.50;;;;;7.99;60.34;101343.78;5059489;28;45670;-79
2022/04/27 02:54:21;;;;;;;;;13.00;8.50;;;;;7.93;60.77;101341.16;5066753;28;46591;-80
2022/04/27 02:56:48;;;;;;;;;12.75;12.00;;;;;7.89;60.97;101349.91;5070231;28;45456;-79
2022/04/27 02:59:14;;;;;;;;;9.75;8.50;;;;;7.89;61.21;101344.63;5060215;28;45274;-75
2022/04/27 03:01:39;;;;;;;;;9.25;8.50;;;;;7.84;61.26;101343.75;5058733;28;45505;-76
2022/04/27 03:04:06;;;;;;;;;11.50;11.00;;;;;7.79;60.61;101345.50;5056927;28;45740;-77
2022/04/27 03:06:32;;;;;;;;;10.50;9.50;;;;;7.80;60.98;101344.59;5056718;28;45406;-76
2022/04/27 03:08:57;;;;;;;;;12.75;10.50;;;;;7.77;61.22;101344.59;5056975;28;45510;-77
2022/04/27 03:11:22;;;;;;;;;13.25;10.00;;;;;7.75;61.68;101339.31;5056696;28;45502;-77
2022/04/27 03:13:48;;;;;;;;;13.50;9.00;;;;;7.64;61.62;101317.38;5058574;28;45407;-77
2022/04/27 03:16:13;;;;;;;;;12.00;9.00;;;;;7.62;61.97;101321.72;5058968;28;45380;-77
2022/04/27 03:18:38;;;;;;;;;16.50;12.00;;;;;7.65;62.09;101341.06;5071991;28;45373;-76
2022/04/27 03:21:04;;;;;;;;;12.25;9.75;;;;;7.61;62.33;101328.75;5057032;28;45439;-77
2022/04/27 03:23:29;;;;;;;;;8.50;7.50;;;;;7.62;62.29;101335.78;5057023;28;45412;-77
2022/04/27 03:25:55;;;;;;;;;7.00;7.00;;;;;7.58;62.00;101339.25;5055924;28;45557;-76
2022/04/27 03:28:21;;;;;;;;;12.00;8.50;;;;;7.53;62.61;101338.38;5056737;28;45457;-77
2022/04/27 03:30:48;;;;;;;;;15.25;9.25;;;;;7.49;62.30;101331.34;5056661;28;45590;-76
2022/04/27 03:33:13;;;;;;;;;12.00;8.50;;;;;7.46;62.53;101333.94;5057061;28;45423;-76
2022/04/27 03:35:39;;;;;;;;;16.50;12.00;;;;;7.46;62.53;101341.84;5056297;28;45478;-77
2022/04/27 03:38:04;;;;;;;;;9.00;7.50;;;;;7.37;63.56;101326.88;5056736;28;45590;-77
2022/04/27 03:40:30;;;;;;;;;12.75;12.75;;;;;7.39;63.58;101329.53;5056391;28;45541;-77
2022/04/27 03:42:55;;;;;;;;;14.25;14.25;;;;;7.36;63.15;101329.50;5056731;28;46056;-76
2022/04/27 03:45:21;;;;;;;;;6.50;4.25;;;;;7.38;63.60;101330.38;5058068;28;45442;-78
2022/04/27 03:47:47;;;;;;;;;18.25;13.00;;;;;7.38;63.67;101327.75;5059208;28;45375;-77
2022/04/27 03:50:13;;;;;;;;;16.00;11.50;;;;;7.33;63.52;101324.22;5040175;28;45622;-77
2022/04/27 03:52:38;;;;;;;;;7.50;7.25;;;;;7.29;64.21;101326.84;5057044;28;45469;-77
2022/04/27 03:55:04;;;;;;;;;13.50;10.00;;;;;7.29;63.74;101333.88;5037069;28;45478;-77
2022/04/27 03:57:30;;;;;;;;;13.75;10.75;;;;;7.22;64.64;101325.03;5056448;28;45339;-77
2022/04/27 03:59:55;;;;;;;;;16.25;13.00;;;;;7.23;64.51;101329.44;5055998;28;45529;-75
2022/04/27 04:02:21;;;;;;;;;18.75;14.00;;;;;7.22;64.36;101338.19;5055669;28;45315;-76
2022/04/27 04:04:47;;;;;;;;;13.50;12.25;;;;;7.21;63.92;101336.47;5055816;28;45362;-76
2022/04/27 04:07:12;;;;;;;;;16.25;13.00;;;;;7.19;64.09;101332.91;5056650;28;45339;-76
2022/04/27 04:09:38;;;;;;;;;16.50;12.75;;;;;7.17;64.66;101337.28;5056270;28;45347;-76
2022/04/27 04:12:04;;;;;;;;;15.75;12.00;;;;;7.11;65.01;101343.38;5056165;28;45516;-77
2022/04/27 04:14:30;;;;;;;;;16.00;12.00;;;;;7.16;65.24;101342.53;5058111;28;45470;-76
2022/04/27 04:16:55;;;;;;;;;20.00;12.25;;;;;7.13;65.27;101348.66;5058435;28;45371;-76
2022/04/27 04:19:20;;;;;;;;;22.50;13.75;;;;;7.08;65.19;101347.75;5056278;28;45431;-76
2022/04/27 04:21:46;;;;;;;;;15.50;13.00;;;;;7.08;64.70;101342.50;5055816;28;45395;-77
2022/04/27 04:24:11;;;;;;;;;14.50;14.50;;;;;7.04;65.66;101345.97;5055449;28;45401;-77
2022/04/27 04:29:20;;;;;;;;;17.50;13.00;;;;;7.07;65.64;101353.88;5055881;28;45399;-76
2022/04/27 04:31:46;;;;;;;;;17.25;14.50;;;;;7.04;65.36;101344.22;5055577;28;46364;-77
2022/04/27 04:34:11;;;;;;;;;16.00;12.00;;;;;7.07;65.90;101354.75;5054716;28;45399;-76
2022/04/27 04:36:36;;;;;;;;;20.00;16.00;;;;;7.03;65.47;101357.34;5056048;28;45394;-76
2022/04/27 04:39:02;;;;;;;;;16.25;12.25;;;;;7.03;66.41;101359.97;5056180;28;45460;-77
2022/04/27 04:41:27;;;;;;;;;17.50;12.50;;;;;7.01;65.33;101366.97;5054917;28;45505;-76
2022/04/27 04:43:53;;;;;;;;;18.50;17.75;;;;;6.97;66.36;101359.94;5056897;28;45433;-78
2022/04/27 04:46:18;;;;;;;;;19.25;12.75;;;;;6.97;66.60;101354.66;5056612;28;45397;-76
2022/04/27 04:48:43;;;;;;;;;18.25;14.00;;;;;7.06;65.98;101365.25;5056084;28;45497;-76
2022/04/27 04:51:09;;;;;;;;;19.25;16.25;;;;;7.07;66.03;101357.38;5036738;28;52568;-76
2022/04/27 04:53:34;;;;;;;;;24.00;20.00;;;;;7.16;65.86;101366.22;5037052;28;45415;-77
2022/04/27 04:56:00;;;;;;;;;18.75;17.00;;;;;7.20;66.03;101376.75;5054968;28;45370;-78
2022/04/27 04:58:25;;;;;;;;;21.25;15.25;;;;;7.24;65.40;101365.41;5055437;28;45537;-76
2022/04/27 05:00:50;;;;;;;;;21.75;15.00;;;;;7.36;65.72;101363.69;5055389;28;45535;-76
2022/04/27 05:03:16;;;;;;;;;16.75;9.00;;;;;7.45;64.72;101364.66;5055795;28;45550;-76
2022/04/27 05:05:42;;;;;;;;;24.50;16.50;;;;;7.70;64.94;101382.28;5055346;28;45474;-78
2022/04/27 05:08:09;;;;;;;;;28.25;19.25;;;;;7.82;64.13;101361.31;5055183;28;45380;-78
2022/04/27 05:10:34;;;;;;;;;17.00;17.00;;;;;8.05;63.78;101376.28;5054274;28;45962;-77
2022/04/27 05:13:00;;;;;;;;;16.00;15.25;;;;;8.27;62.57;101378.09;5055950;28;45461;-76
2022/04/27 05:15:25;;;;;;;;;18.25;16.50;;;;;8.51;61.98;101372.03;5058647;28;45391;-77
2022/04/27 05:17:51;;;;;;;;;23.00;20.00;;;;;8.71;61.53;101369.44;5056223;28;45487;-78
2022/04/27 05:20:16;;;;;;;;;26.75;20.50;;;;;9.00;60.40;101376.44;5054712;28;45509;-78
2022/04/27 05:22:41;;;;;;;;;12.75;11.00;;;;;9.24;59.66;101379.91;5055204;28;45355;-77
2022/04/27 05:25:08;;;;;;;;;18.50;15.50;;;;;9.46;58.86;101379.88;5036721;28;45448;-77
2022/04/27 05:27:38;;;;;;;;;23.50;16.00;;;;;9.67;58.44;101381.56;5037576;28;45549;-77
2022/04/27 05:32:51;;;;;;;;;23.25;18.50;;;;;10.30;56.40;101384.78;5054986;28;45602;-77
2022/04/27 05:35:16;;;;;;;;;37.25;20.00;;;;;10.38;55.84;101390.06;5054749;28;45376;-77
2022/04/27 05:37:42;;;;;;;;;21.50;15.75;;;;;10.69;55.40;101394.25;5054592;28;45344;-77
2022/04/27 05:40:08;;;;;;;;;17.25;15.25;;;;;11.04;54.21;101393.97;5053410;28;45548;-78
2022/04/27 05:42:35;;;;;;;;;19.25;15.50;;;;;11.43;53.70;101404.19;5054320;28;45517;-77
2022/04/27 05:45:00;;;;;;;;;23.75;18.00;;;;;11.68;52.56;101383.63;5055992;28;45597;-77
2022/04/27 05:47:26;;;;;;;;;19.00;16.50;;;;;12.07;51.45;101397.28;5058740;28;45402;-78
2022/04/27 05:49:52;;;;;;;;;28.75;21.25;;;;;12.49;50.52;101402.00;5055888;28;46985;-77
2022/04/27 05:52:18;;;;;;;;;19.00;15.00;;;;;12.82;50.14;101397.97;5054658;28;45328;-77
2022/04/27 05:54:44;;;;;;;;;27.00;18.75;;;;;13.08;49.01;101407.25;5054414;28;45410;-80
2022/04/27 05:57:10;;;;;;;;;23.25;21.00;;;;;13.37;48.70;101401.47;5075104;28;45591;-79
2022/04/27 05:59:35;;;;;;;;;23.00;21.00;;;;;13.80;47.09;101410.38;5056404;28;47393;-80
2022/04/27 06:02:00;;;;;;;;;15.50;14.00;;;;;14.09;46.55;101416.88;5075067;28;45472;-79
2022/04/27 06:04:26;;;;;;;;;24.25;20.50;;;;;14.42;45.94;101409.06;5074701;28;45413;-79
2022/04/27 06:06:53;;;;;;;;;25.00;15.75;;;;;14.76;44.78;101411.84;5075454;28;45455;-79
2022/04/27 06:09:18;;;;;;;;;16.50;15.50;;;;;14.91;44.54;101395.50;5074326;28;46337;-80
2022/04/27 06:11:43;;;;;;;;;16.75;12.00;;;;;15.33;43.81;101415.72;5074804;28;45399;-78
2022/04/27 06:14:09;;;;;;;;;27.75;20.25;;;;;15.52;43.38;101409.91;5076734;28;45686;-79
2022/04/27 06:16:34;;;;;;;;;31.50;23.00;;;;;15.88;42.75;101407.16;5062734;28;45370;-79
2022/04/27 06:19:00;;;;;;;;;20.50;19.25;;;;;16.16;41.81;101420.56;5078420;27;46052;-78
2022/04/27 06:21:31;;;;;;;;;21.25;16.50;;;;;16.25;41.46;101422.06;5059155;28;45368;-79
2022/04/27 06:23:58;;;;;;;;;32.25;25.00;;;;;16.58;40.97;101421.94;5077270;27;45421;-79
2022/04/27 06:26:24;;;;;;;;;23.75;20.75;;;;;16.85;40.29;101422.84;5056804;28;45618;-78
2022/04/27 06:28:49;;;;;;;;;25.00;21.00;;;;;17.21;39.89;101425.22;5056965;28;46036;-79
2022/04/27 06:31:15;;;;;;;;;26.00;18.50;;;;;17.35;39.35;101419.41;5074808;28;45391;-78
2022/04/27 06:33:40;;;;;;;;;28.25;21.25;;;;;17.60;38.61;101427.44;5056294;28;45447;-78
2022/04/27 06:36:06;;;;;;;;;22.00;16.25;;;;;17.67;38.28;101433.44;5074173;27;45436;-79
2022/04/27 06:38:31;;;;;;;;;26.25;24.00;;;;;17.84;38.14;101431.03;5074088;28;45355;-79
2022/04/27 06:40:56;;;;;;;;;23.75;23.50;;;;;18.05;37.26;101433.84;5073975;28;45364;-80
2022/04/27 06:43:22;;;;;;;;;23.25;17.75;;;;;18.32;37.48;101436.41;5076537;28;45536;-80
2022/04/27 06:45:47;;;;;;;;;32.50;25.00;;;;;18.85;36.33;101428.06;5077241;28;45397;-80
2022/04/27 06:48:13;;;;;;;;;27.50;24.25;;;;;19.13;35.74;101434.94;5075532;28;45445;-80
2022/04/27 06:50:38;;;;;;;;;27.00;21.50;;;;;19.26;35.50;101433.47;5074522;28;45358;-80
2022/04/27 06:53:04;;;;;;;;;26.75;18.00;;;;;19.63;35.00;101437.25;5074574;28;45560;-80
2022/04/27 06:55:31;;;;;;;;;21.50;20.25;;;;;19.86;34.54;101435.38;5068503;28;45346;-79
2022/04/27 06:57:56;;;;;;;;;27.25;22.75;;;;;20.05;34.35;101436.25;5054505;28;46592;-80
2022/04/27 07:00:22;;;;;;;;;25.75;18.00;;;;;19.86;34.39;101432.69;5053921;28;45402;-80
2022/04/27 07:02:47;;;;;;;;;30.25;22.00;;;;;19.96;34.33;101436.69;5053663;28;45458;-80
2022/04/27 07:05:17;;;;;;;;;26.00;22.00;;;;;20.18;34.51;101430.34;5054091;28;45436;-79
2022/04/27 07:07:46;;;;;;;;;27.00;24.75;;;;;20.66;33.74;101441.50;5053408;28;45419;-79
2022/04/27 07:10:13;;;;;;;;;27.75;24.00;;;;;20.97;32.80;101446.25;5054310;28;45387;-80
2022/04/27 07:12:39;;;;;;;;;27.25;21.50;;;;;21.18;32.33;101447.00;5057617;28;45501;-80
2022/04/27 07:15:05;;;;;;;;;28.50;23.75;;;;;21.42;32.30;101439.47;5041278;28;46954;-79
2022/04/27 07:17:31;;;;;;;;;28.75;24.25;;;;;21.51;32.31;101445.34;5061528;28;46414;-79
2022/04/27 07:19:56;;;;;;;;;22.50;22.50;;;;;21.53;31.27;101438.06;5059592;28;45497;-80
2022/04/27 07:22:22;;;;;;;;;22.50;19.25;;;;;21.51;31.92;101445.34;5062170;28;45411;-79
2022/04/27 07:24:49;;;;;;;;;21.50;20.25;;;;;21.61;31.80;101447.47;5059693;28;45350;-80
2022/04/27 07:27:15;;;;;;;;;30.00;26.00;;;;;22.21;31.46;101447.88;5059505;28;46190;-78
2022/04/27 07:29:41;;;;;;;;;28.25;25.75;;;;;22.61;30.83;101442.97;5057140;28;45542;-80
2022/04/27 07:32:06;;;;;;;;;25.50;19.75;;;;;22.29;30.35;101449.22;5057311;28;45472;-79
2022/04/27 07:34:32;;;;;;;;;33.50;30.25;;;;;22.14;30.48;101445.53;5058348;28;45563;-80
2022/04/27 07:36:58;;;;;;;;;24.00;16.00;;;;;22.33;30.35;101447.22;5038682;28;46309;-80
2022/04/27 07:39:24;;;;;;;;;22.50;17.00;;;;;22.34;30.52;101452.53;5056478;28;45423;-80
2022/04/27 07:41:50;;;;;;;;;32.25;25.25;;;;;22.54;30.00;101447.84;5056968;28;45383;-79
2022/04/27 07:44:15;;;;;;;;;25.50;22.25;;;;;22.60;30.07;101447.50;5057280;28;45419;-80
2022/04/27 07:46:42;;;;;;;;;37.00;23.75;;;;;22.49;30.19;101456.19;5059705;28;46003;-80
2022/04/27 07:49:07;;;;;;;;;29.75;27.50;;;;;22.78;29.96;101455.50;5061097;28;45568;-79
2022/04/27 07:51:33;;;;;;;;;26.75;22.50;;;;;22.95;30.37;101454.53;5060418;28;45404;-79
2022/04/27 07:53:58;;;;;;;;;29.75;24.25;;;;;23.16;29.74;101455.97;5059693;28;45479;-80
2022/04/27 07:56:23;;;;;;;;;30.25;26.75;;;;;23.42;30.02;101446.31;5057493;28;46265;-79
2022/04/27 07:58:49;;;;;;;;;35.25;29.75;;;;;23.67;28.69;101454.75;5056888;28;45462;-79
2022/04/27 08:01:14;;;;;;;;;25.25;23.75;;;;;23.69;29.12;101455.53;5038637;28;45432;-80
2022/04/27 08:03:39;;;;;;;;;29.00;24.50;;;;;23.99;28.62;101460.00;5058017;28;45377;-79
2022/04/27 08:06:05;;;;;;;;;26.25;23.75;;;;;24.16;28.17;101449.03;5056493;28;46263;-79
2022/04/27 08:08:31;;;;;;;;;23.00;22.00;;;;;24.29;28.02;101458.09;5056908;28;45453;-79
2022/04/27 08:10:56;;;;;;;;;29.75;24.75;;;;;24.20;27.84;101453.28;5056737;28;45458;-80
2022/04/27 08:13:22;;;;;;;;;22.50;18.00;;;;;24.09;28.17;101462.03;5058002;28;45387;-80
2022/04/27 08:15:47;;;;;;;;;29.00;25.00;;;;;24.24;28.64;101454.78;5059175;28;46514;-79
2022/04/27 08:18:13;;;;;;;;;22.75;21.00;;;;;24.36;28.35;101463.09;5062079;28;45312;-80
2022/04/27 08:23:29;;;;;;;;;28.00;25.75;;;;;24.39;28.23;101462.88;5056073;28;45363;-79
2022/04/27 08:25:57;;;;;;;;;26.00;24.25;;;;;24.62;27.95;101462.28;5055701;28;46108;-79
2022/04/27 08:28:22;;;;;;;;;34.25;25.00;;;;;24.62;27.61;101474.94;5038246;28;45445;-80
2022/04/27 08:30:49;;;;;;;;;31.25;27.00;;;;;24.48;28.11;101473.09;5037710;28;45491;-78
2022/04/27 08:33:16;;;;;;;;;27.25;25.25;;;;;24.67;27.86;101471.94;5055883;28;45675;-78
2022/04/27 08:35:42;;;;;;;;;32.50;26.75;;;;;24.69;27.33;101469.97;5055036;28;45296;-78
2022/04/27 08:38:09;;;;;;;;;34.00;29.00;;;;;24.67;27.96;101474.63;5055795;28;45377;-77
2022/04/27 08:40:36;;;;;;;;;36.50;32.00;;;;;24.92;27.66;101463.06;5054835;28;45360;-77
2022/04/27 08:43:02;;;;;;;;;32.50;25.50;;;;;24.54;27.66;101474.53;5037411;28;45524;-78
2022/04/27 08:45:29;;;;;;;;;28.50;22.00;;;;;24.63;27.72;101477.53;5056165;28;46128;-78
2022/04/27 08:47:55;;;;;;;;;34.50;31.00;;;;;24.79;27.58;101471.13;5057720;28;45447;-77
2022/04/27 08:50:23;;;;;;;;;27.00;20.25;;;;;24.82;28.03;101466.41;5056065;28;45459;-80
2022/04/27 08:52:50;;;;;;;;;35.25;26.00;;;;;24.89;27.89;101464.13;5055599;28;45289;-81
2022/04/27 08:55:17;;;;;;;;;28.50;20.75;;;;;24.99;27.62;101467.06;5060070;28;45674;-79
2022/04/27 08:57:45;;;;;;;;;33.00;27.50;;;;;25.32;27.54;101480.19;5075566;28;45347;-80
2022/04/27 09:00:16;;;;;;;;;25.00;21.50;;;;;25.11;27.44;101466.28;5075832;27;45510;-79
2022/04/27 09:02:42;;;;;;;;;27.25;19.25;;;;;24.97;27.77;101474.44;5075903;28;45640;-80
2022/04/27 09:05:20;;;;;;;;;29.25;23.25;;;;;24.98;28.24;101478.88;5075952;27;46097;-81
2022/04/27 09:07:51;;;;;;;;;35.50;26.00;;;;;25.18;27.70;101473.00;5075534;28;45397;-80
2022/04/27 09:10:25;;;;;;;;;34.50;31.00;;;;;25.29;27.33;101469.59;5075340;27;45528;-79
2022/04/27 09:12:52;;;;;;;;;31.75;26.75;;;;;25.41;27.11;101467.03;5075989;27;45460;-80
2022/04/27 09:15:20;;;;;;;;;31.25;22.75;;;;;25.13;27.22;101475.16;5077153;27;45433;-80
2022/04/27 09:20:50;;;;;;;;;18.00;15.50;;;;;25.16;27.37;101465.97;5076481;28;45316;-80
2022/04/27 09:23:25;;;;;;;;;32.75;27.75;;;;;25.22;27.68;101464.66;5075780;27;45324;-80
2022/04/27 09:25:55;;;;;;;;;27.75;23.75;;;;;25.18;27.96;101462.16;5074910;27;45362;-80
2022/04/27 09:28:23;;;;;;;;;24.75;24.00;;;;;25.41;27.21;101467.03;5075293;28;45597;-81
2022/04/27 09:30:49;;;;;;;;;29.25;24.50;;;;;25.41;27.89;101462.47;5075641;27;45531;-79
2022/04/27 09:33:35;;;;;;;;;28.25;24.25;;;;;25.86;27.85;101475.63;5074902;27;45559;-79
2022/04/27 09:36:18;;;;;;;;;32.50;28.75;;;;;25.89;27.38;101472.69;5075254;28;46525;-80
2022/04/27 09:38:43;;;;;;;;;75.33;62.00;;;;;25.33;27.71;101475.66;5075500;27;45522;-76
2022/04/27 09:41:09;;;;;;;;;22.25;19.00;;;;;25.46;27.54;101468.44;5055881;28;45472;-78
2022/04/27 09:43:41;;;;;;;;;28.00;26.00;;;;;25.77;27.77;101473.56;5074518;27;45447;-77
2022/04/27 09:46:25;;;;;;;;;42.00;39.50;;;;;25.96;27.30;101463.13;5075063;28;45530;-80
2022/04/27 09:49:14;;;;;;;;;29.25;26.75;;;;;26.02;27.46;101468.16;5076967;28;45365;-78
2022/04/27 09:51:51;;;;;;;;;56.25;50.25;;;;;25.90;26.97;101469.00;5074821;28;45487;-79
2022/04/27 09:54:30;;;;;;;;;75.00;59.67;;;;;26.00;27.18;101469.25;5074079;27;45382;-78
2022/04/27 09:57:05;;;;;;;;;26.50;22.00;;;;;25.85;27.23;101463.06;5074329;28;45477;-79
2022/04/27 09:59:33;;;;;;;;;96.33;77.00;;;;;26.13;27.29;101459.28;5074533;27;45534;-78
2022/04/27 10:02:04;;;;;;;;;27.75;18.75;;;;;26.08;27.08;101466.00;5074564;28;45516;-78
2022/04/27 10:04:30;;;;;;;;;30.50;25.75;;;;;26.02;26.84;101459.16;5074471;27;45367;-76
2022/04/27 10:07:01;;;;;;;;;32.25;28.25;;;;;25.65;27.61;101450.94;5075218;27;46077;-78
2022/04/27 10:09:27;;;;;;;;;34.00;31.75;;;;;25.94;27.15;101456.97;5074004;28;45331;-78
2022/04/27 10:11:57;;;;;;;;;22.00;19.50;;;;;25.85;27.21;101454.94;5074502;27;45377;-78
2022/04/27 10:14:25;;;;;;;;;27.25;23.50;;;;;25.92;27.07;101450.81;5074332;28;45389;-78
2022/04/27 10:16:51;;;;;;;;;28.75;22.75;;;;;25.54;27.47;101451.69;5076825;27;45699;-79
2022/04/27 10:19:17;;;;;;;;;33.75;31.75;;;;;25.58;27.37;101439.66;5077388;28;45468;-79
2022/04/27 10:21:56;;;;;;;;;27.00;22.75;;;;;25.56;27.60;101436.19;5074814;27;45890;-79
2022/04/27 10:24:46;;;;;;;;;28.50;26.00;;;;;25.25;28.09;101438.28;5056087;28;45505;-81
2022/04/27 10:27:18;;;;;;;;;25.50;24.25;;;;;25.13;28.33;101433.72;5074780;28;45586;-80
2022/04/27 10:29:46;;;;;;;;;26.00;19.00;;;;;24.97;27.91;101431.19;5074148;28;45505;-81
2022/04/27 10:32:12;;;;;;;;;29.00;26.75;;;;;24.92;28.63;101425.22;5075039;28;45370;-81
2022/04/27 10:34:37;;;;;;;;;28.25;23.25;;;;;24.75;28.74;101402.91;5075287;28;45501;-80
2022/04/27 10:37:03;;;;;;;;;29.00;26.75;;;;;24.71;28.39;101420.28;5074154;28;45450;-80
2022/04/27 10:39:33;;;;;;;;;23.75;22.75;;;;;24.58;28.61;101413.94;5073833;28;45332;-77
2022/04/27 10:42:04;;;;;;;;;26.25;25.50;;;;;24.07;29.50;101406.41;5074114;28;45466;-79
2022/04/27 10:44:51;;;;;;;;;24.50;19.50;;;;;24.00;28.96;101413.16;5074309;27;45398;-78
2022/04/27 10:47:21;;;;;;;;;24.50;23.75;;;;;24.07;29.11;101415.38;5078316;28;45489;-78
2022/04/27 10:49:50;;;;;;;;;20.50;18.00;;;;;23.75;29.48;101412.00;5080677;27;45415;-79
2022/04/27 10:52:22;;;;;;;;;23.25;17.00;;;;;23.65;29.53;101417.06;5077767;28;45484;-79
2022/04/27 10:54:48;;;;;;;;;19.50;16.75;;;;;23.75;30.43;101410.16;5075893;28;45448;-78
2022/04/27 10:57:16;;;;;;;;;21.25;19.00;;;;;23.58;30.32;101419.28;5057160;28;46506;-78
2022/04/27 11:00:07;;;;;;;;;23.75;20.75;;;;;23.51;30.25;101409.84;5057124;28;45411;-78
2022/04/27 11:02:38;;;;;;;;;20.25;18.50;;;;;24.05;29.24;101408.31;5057602;28;45465;-78
2022/04/27 11:05:04;;;;;;;;;29.75;26.00;;;;;23.73;29.88;101404.00;5056591;28;45429;-79
2022/04/27 11:07:42;;;;;;;;;25.75;23.25;;;;;23.28;30.68;101410.38;5056847;28;46137;-78
2022/04/27 11:10:14;;;;;;;;;30.25;26.50;;;;;23.32;30.77;101404.72;5038306;28;45443;-78
2022/04/27 11:12:42;;;;;;;;;22.25;14.75;;;;;23.54;30.36;101401.56;5057506;28;45514;-78
2022/04/27 11:15:11;;;;;;;;;30.00;23.00;;;;;23.40;30.36;101388.06;5056760;28;45633;-79
2022/04/27 11:17:38;;;;;;;;;27.00;24.00;;;;;23.14;30.04;101395.91;5059946;28;45936;-78
2022/04/27 11:20:05;;;;;;;;;26.50;26.50;;;;;23.30;29.91;101400.38;5059446;28;45436;-78
2022/04/27 11:22:41;;;;;;;;;21.50;15.25;;;;;23.27;29.69;101404.09;5057384;28;45417;-79
2022/04/27 11:25:08;;;;;;;;;17.25;14.00;;;;;22.80;29.68;101399.69;5056127;28;45330;-78
2022/04/27 11:27:36;;;;;;;;;15.75;15.75;;;;;22.58;30.04;101400.06;5056950;28;45995;-81
2022/04/27 11:30:04;;;;;;;;;15.50;14.25;;;;;22.57;29.94;101399.19;5038707;28;45463;-80
2022/04/27 11:32:30;;;;;;;;;14.00;12.00;;;;;22.03;30.76;101398.63;5057563;28;45443;-80